Kagoshima, Japan

1:55 PM JST on October 31, 2014 (GMT +0900)
Kagoshima | Change Station
CLOSE
Current Station
Airport
Location: Kagoshima Airport,
Elevation: 902 ft
Nearby Weather Stations

Elev 902 ft 31.80 °N, 130.72 °E | Updated 55 minutes ago

Mostly Cloudy
Mostly Cloudy
73 °F
Feels Like 73 °F
N
6
Wind Variable Wind from ESE

Today
High -- | Low -- °F
--% Chance of Precip.
Yesterday
High -- | Low -- °F
Precip. -- in
6:32 AM 5:29 PM
Waxing Crescent, 51% visible
Pressure 30.04 in
Visibility 6.2 miles
Clouds Few 2500 ft
Scattered Clouds 3000 ft
Mostly Cloudy 4000 ft
Dew Point 59 °F
Humidity 61%
Rainfall 0.00 in
Snow Depth Not available.
UV 4 out of 12
Pollen Not available.
Air Quality Not available.
Flu Activity Not available.
METAR RJFK 310400Z 12005KT 070V150 9999 FEW025 SCT030 BKN040 23/15 Q1017 RMK 1CU025 3CU030 5CU040 A3006 VOLCANIC ASH CLOUD S

More Conditions Fewer Conditions

Pressure 30.04 in
Visibility 6.2 miles
Clouds Few 2500 ft
Scattered Clouds 3000 ft
Mostly Cloudy 4000 ft
Dew Point 59 °F
Humidity 61%
Rainfall 0.00 in
Snow Depth Not available.
UV 4 out of 12
Pollen Not available.
Air Quality Not available.
Flu Activity Not available.
METAR RJFK 310400Z 12005KT 070V150 9999 FEW025 SCT030 BKN040 23/15 Q1017 RMK 1CU025 3CU030 5CU040 A3006 VOLCANIC ASH CLOUD S

More Conditions Fewer Conditions

10-Day Weather Forecast

Almanac

Astronomy

Oct. 31, 2014 Rise Set
Actual Time
Civil Twilight
Nautical Twilight
Astronomical Twilight
Moon
Length of Visible Light
Length of Day
Tomorrow will be .
, % of the Moon is Illuminated

Today's Extremes

Country Highs Country Lows

Community

WunderPhotos

Upload Photos

1,766,567 photos uploaded!

WunderBlogs® & News

Nearby

Air Quality

  Air Quality AQ Index Pollutant
Not available.

Snow Depth

Station Depth Elevation

Earthquake Activity

City Distance Mag. Time & Date
Minimum magnitude displayed is 2.5.

Coastal Water Temperatures

Place Temperature

Nearby Weather Stations